Time;durP1;ratioP1;P1;durP2;ratioP2;P2;SDS_P1;SDS_P2;PMS_P1;PMS_P2;Temp;Humidity;BMP_temperature;BMP_pressure;BME280_temperature;BME280_humidity;BME280_pressure;Samples;Min_cycle;Max_cycle;Signal;HPM_P1;HPM_P2
2021/01/29 00:00:18;;;;;;;14.80;9.65;;;;;;;1.87;100.00;100439.56;4978942;28;20117;-73
2021/01/29 00:03:08;;;;;;;14.93;9.75;;;;;;;1.66;100.00;100435.03;4978269;28;20456;-74
2021/01/29 00:05:58;;;;;;;16.55;10.23;;;;;;;1.76;100.00;100431.69;4979078;28;20034;-74
2021/01/29 00:08:44;;;;;;;13.43;8.63;;;;;;;1.38;100.00;100426.84;4978931;28;20089;-73
2021/01/29 00:11:29;;;;;;;15.00;8.70;;;;;;;1.62;100.00;100428.06;4978646;28;20078;-72
2021/01/29 00:14:15;;;;;;;13.45;8.00;;;;;;;1.41;100.00;100425.19;4978035;28;20132;-73
2021/01/29 00:17:02;;;;;;;14.32;9.07;;;;;;;2.01;100.00;100423.41;4978675;28;20026;-73
2021/01/29 00:19:48;;;;;;;13.85;8.32;;;;;;;1.42;100.00;100418.31;4978762;28;20035;-73
2021/01/29 00:22:33;;;;;;;15.50;8.85;;;;;;;1.57;100.00;100423.69;4978265;28;20027;-73
2021/01/29 00:25:26;;;;;;;13.30;8.85;;;;;;;1.53;100.00;100427.09;4979317;28;20041;-74
2021/01/29 00:28:12;;;;;;;13.65;8.95;;;;;;;1.65;100.00;100427.25;4978803;28;20030;-74
2021/01/29 00:30:58;;;;;;;12.75;8.63;;;;;;;1.37;100.00;100423.38;4978485;28;20026;-73
2021/01/29 00:33:44;;;;;;;14.45;8.57;;;;;;;1.35;100.00;100417.34;4978527;28;20035;-73
2021/01/29 00:36:30;;;;;;;12.38;8.63;;;;;;;1.43;100.00;100420.91;4978660;28;20069;-73
2021/01/29 00:39:16;;;;;;;13.52;8.48;;;;;;;1.19;100.00;100415.41;4978248;28;20034;-73
2021/01/29 00:42:02;;;;;;;12.48;8.57;;;;;;;1.93;100.00;100417.28;4964416;28;20039;-73
2021/01/29 00:44:48;;;;;;;13.77;8.40;;;;;;;1.74;100.00;100419.63;4978282;28;20039;-72
2021/01/29 00:47:34;;;;;;;13.45;8.07;;;;;;;1.87;100.00;100413.75;4978006;28;20100;-73
2021/01/29 00:50:20;;;;;;;11.52;7.88;;;;;;;1.69;100.00;100418.69;4977725;28;20103;-73
2021/01/29 00:53:07;;;;;;;13.20;8.23;;;;;;;1.82;100.00;100416.28;4964436;28;20038;-73
2021/01/29 00:55:53;;;;;;;14.30;9.13;;;;;;;1.60;100.00;100411.69;4978448;28;20031;-73
2021/01/29 00:58:39;;;;;;;12.60;8.48;;;;;;;1.38;100.00;100411.38;4977586;28;20073;-72
2021/01/29 01:01:24;;;;;;;15.63;9.23;;;;;;;1.61;100.00;100412.56;4977906;28;20523;-73
2021/01/29 01:04:12;;;;;;;14.48;9.75;;;;;;;1.56;100.00;100407.31;4977008;28;20041;-73
2021/01/29 01:06:58;;;;;;;12.93;8.60;;;;;;;2.04;100.00;100407.94;4978359;28;20027;-74
2021/01/29 01:09:45;;;;;;;13.50;9.05;;;;;;;1.79;100.00;100411.09;4977839;28;20343;-73
2021/01/29 01:12:31;;;;;;;16.08;9.70;;;;;;;1.86;100.00;100415.47;4977347;28;20062;-73
2021/01/29 01:15:23;;;;;;;13.20;8.80;;;;;;;1.57;100.00;100411.63;4963429;28;20106;-74
2021/01/29 01:18:09;;;;;;;15.20;9.35;;;;;;;1.45;100.00;100410.63;4977368;28;20110;-73
2021/01/29 01:20:55;;;;;;;14.88;8.85;;;;;;;1.33;100.00;100405.28;4977006;28;20442;-73
2021/01/29 01:23:41;;;;;;;16.58;9.13;;;;;;;1.58;100.00;100407.34;4964954;28;20362;-73
2021/01/29 01:26:26;;;;;;;15.82;9.82;;;;;;;1.52;100.00;100402.13;4977192;28;20031;-72
2021/01/29 01:29:12;;;;;;;16.80;9.93;;;;;;;1.70;100.00;100398.06;4978121;28;20093;-74
2021/01/29 01:31:58;;;;;;;15.65;9.30;;;;;;;1.62;100.00;100401.38;4977394;28;20037;-72
2021/01/29 01:34:44;;;;;;;14.68;9.23;;;;;;;1.66;100.00;100395.41;4977280;28;20371;-73
2021/01/29 01:37:29;;;;;;;13.18;9.13;;;;;;;1.78;100.00;100399.03;4977331;28;20363;-73
2021/01/29 01:40:17;;;;;;;16.58;9.00;;;;;;;1.84;100.00;100395.66;4963742;28;20031;-73
2021/01/29 01:43:04;;;;;;;10.93;7.60;;;;;;;1.48;100.00;100390.88;4963790;28;20356;-74
2021/01/29 01:45:56;;;;;;;13.40;8.80;;;;;;;1.54;100.00;100396.13;4977385;28;20113;-73
2021/01/29 01:48:42;;;;;;;13.45;8.38;;;;;;;1.86;100.00;100375.88;4976930;28;20058;-73
2021/01/29 01:51:53;;;;;;;12.18;7.78;;;;;;;1.19;100.00;100383.56;4976400;28;20030;-73
2021/01/29 01:54:45;;;;;;;11.95;8.13;;;;;;;1.68;100.00;100379.09;4976016;28;20065;-73
2021/01/29 01:57:33;;;;;;;13.35;7.95;;;;;;;1.51;100.00;100380.59;4976946;28;20030;-73
2021/01/29 02:00:24;;;;;;;12.77;7.45;;;;;;;1.19;100.00;100366.38;4976791;28;20106;-73
2021/01/29 02:03:19;;;;;;;12.23;7.47;;;;;;;1.37;100.00;100361.47;4976305;28;20027;-73
2021/01/29 02:06:06;;;;;;;10.27;7.55;;;;;;;1.71;100.00;100363.63;4976603;28;20030;-74
2021/01/29 02:08:57;;;;;;;10.40;7.75;;;;;;;1.49;100.00;100360.78;4976684;28;20019;-74
2021/01/29 02:11:42;;;;;;;12.88;7.97;;;;;;;1.48;100.00;100357.31;4976413;28;20051;-74
2021/01/29 02:14:28;;;;;;;12.57;8.48;;;;;;;1.50;100.00;100357.34;4976907;28;20027;-73
2021/01/29 02:17:14;;;;;;;15.50;8.32;;;;;;;1.91;100.00;100349.25;4963152;28;20034;-73
2021/01/29 02:20:21;;;;;;;12.80;8.23;;;;;;;1.51;100.00;100348.75;4976144;28;20019;-73
2021/01/29 02:23:28;;;;;;;13.98;8.68;;;;;;;1.68;100.00;100344.69;4963026;28;20106;-73
2021/01/29 02:26:23;;;;;;;13.88;8.65;;;;;;;2.07;100.00;100338.22;4975951;28;20029;-74
2021/01/29 02:29:15;;;;;;;12.63;8.10;;;;;;;2.19;100.00;100338.34;4975598;28;20089;-73
2021/01/29 02:32:28;;;;;;;16.25;8.68;;;;;;;1.73;100.00;100328.38;4976101;28;20341;-73
2021/01/29 02:35:26;;;;;;;15.65;9.07;;;;;;;2.28;100.00;100325.50;4976317;28;20058;-73
2021/01/29 02:38:33;;;;;;;11.18;7.78;;;;;;;2.21;100.00;100323.72;4976680;28;20415;-73
2021/01/29 02:41:41;;;;;;;13.20;8.15;;;;;;;1.87;100.00;100324.22;4975979;28;20466;-73
2021/01/29 02:44:36;;;;;;;13.55;7.93;;;;;;;2.32;100.00;100331.56;4975867;28;20030;-73
2021/01/29 02:47:28;;;;;;;12.50;8.02;;;;;;;2.32;100.00;100316.94;4976258;28;20026;-73
2021/01/29 02:50:17;;;;;;;12.73;8.07;;;;;;;2.10;100.00;100312.44;4976126;28;20030;-73
2021/01/29 02:53:16;;;;;;;11.45;7.82;;;;;;;2.12;100.00;100318.47;4976369;28;20027;-73
2021/01/29 02:56:02;;;;;;;13.15;7.75;;;;;;;2.09;100.00;100323.59;4976305;28;20038;-73
2021/01/29 02:59:01;;;;;;;11.68;7.55;;;;;;;1.92;100.00;100326.88;4976245;28;20082;-73
2021/01/29 03:02:10;;;;;;;10.70;7.00;;;;;;;1.61;100.00;100329.97;4976504;28;20131;-73
2021/01/29 03:05:13;;;;;;;10.95;7.32;;;;;;;1.56;100.00;100335.03;4962747;28;20038;-73
2021/01/29 03:08:09;;;;;;;10.60;6.50;;;;;;;1.67;100.00;100330.00;4966202;28;20105;-73
2021/01/29 03:11:21;;;;;;;11.85;7.28;;;;;;;1.80;100.00;100321.59;4979987;28;20105;-73
2021/01/29 03:14:17;;;;;;;10.13;6.80;;;;;;;2.05;100.00;100331.31;4979556;28;20054;-73
2021/01/29 03:17:33;;;;;;;10.65;6.80;;;;;;;2.26;100.00;100318.59;4979538;28;20057;-73
2021/01/29 03:20:40;;;;;;;11.55;7.43;;;;;;;2.20;100.00;100311.66;4979497;28;20455;-72
2021/01/29 03:23:29;;;;;;;11.85;7.28;;;;;;;2.04;100.00;100314.94;4978932;28;20018;-73
2021/01/29 03:26:27;;;;;;;14.25;7.90;;;;;;;2.21;100.00;100318.53;4979266;28;20537;-73
2021/01/29 03:29:17;;;;;;;12.82;7.60;;;;;;;1.79;100.00;100323.28;4966091;28;20023;-73
2021/01/29 03:32:05;;;;;;;11.50;8.02;;;;;;;1.43;100.00;100329.72;4979377;28;20427;-74
2021/01/29 03:35:00;;;;;;;14.38;9.02;;;;;;;2.00;100.00;100318.34;4965722;28;20037;-74
2021/01/29 03:38:09;;;;;;;15.82;9.70;;;;;;;1.33;100.00;100318.41;4979196;28;20062;-73
2021/01/29 03:41:15;;;;;;;16.63;9.73;;;;;;;1.14;100.00;100328.47;4965556;28;20038;-72
2021/01/29 03:44:19;;;;;;;16.48;9.35;;;;;;;1.15;100.00;100320.75;4978887;28;20054;-73
2021/01/29 03:47:24;;;;;;;16.80;10.35;;;;;;;1.14;100.00;100313.00;4965461;28;20019;-73
2021/01/29 03:50:24;;;;;;;14.77;9.50;;;;;;;1.73;100.00;100307.72;4965373;28;20109;-72
2021/01/29 03:53:13;;;;;;;15.40;9.48;;;;;;;2.03;100.00;100312.34;4979144;28;20023;-72
2021/01/29 03:56:02;;;;;;;16.02;9.95;;;;;;;2.31;100.00;100320.38;4965246;28;20058;-73
2021/01/29 03:58:57;;;;;;;14.20;9.27;;;;;;;2.00;100.00;100314.88;4965125;28;20093;-72
2021/01/29 04:01:42;;;;;;;16.98;10.20;;;;;;;2.25;100.00;100315.13;4965464;28;20026;-73
2021/01/29 04:04:33;;;;;;;16.02;9.38;;;;;;;2.01;100.00;100320.06;4964482;28;20022;-73
2021/01/29 04:07:33;;;;;;;16.15;9.55;;;;;;;2.04;100.00;100314.94;4966851;28;20029;-73
2021/01/29 04:10:21;;;;;;;17.45;9.45;;;;;;;1.88;100.00;100317.38;4981864;28;20519;-73
2021/01/29 04:13:24;;;;;;;16.95;10.05;;;;;;;2.21;100.00;100321.13;4980886;28;20058;-73
2021/01/29 04:16:16;;;;;;;17.40;10.18;;;;;;;1.99;100.00;100320.91;4964157;28;20348;-73
2021/01/29 04:19:06;;;;;;;14.98;10.15;;;;;;;1.27;100.00;100314.88;4978225;28;20035;-73
2021/01/29 04:21:58;;;;;;;15.05;9.73;;;;;;;1.60;100.00;100313.59;4964946;28;20038;-72
2021/01/29 04:24:51;;;;;;;14.88;9.57;;;;;;;1.96;100.00;100306.25;4978004;28;20478;-73
2021/01/29 04:27:41;;;;;;;17.63;10.25;;;;;;;2.05;100.00;100305.47;4978508;28;20065;-73
2021/01/29 04:30:31;;;;;;;16.65;10.23;;;;;;;1.94;100.00;100296.75;4977858;28;20065;-74
2021/01/29 04:33:28;;;;;;;16.40;10.80;;;;;;;1.45;100.00;100303.06;4963046;28;20031;-72
2021/01/29 04:36:16;;;;;;;20.30;11.02;;;;;;;1.90;100.00;100295.00;4978182;28;20081;-72
2021/01/29 04:39:17;;;;;;;17.38;10.65;;;;;;;2.26;100.00;100297.94;4977297;28;20023;-73
2021/01/29 04:42:05;;;;;;;18.38;11.25;;;;;;;2.08;100.00;100290.88;4977815;28;20027;-73
2021/01/29 04:45:14;;;;;;;21.00;11.05;;;;;;;2.37;100.00;100291.97;4977098;28;20376;-73
2021/01/29 04:48:13;;;;;;;17.55;10.60;;;;;;;2.78;100.00;100282.81;4977958;28;20035;-73
2021/01/29 04:51:11;;;;;;;16.45;9.80;;;;;;;2.82;100.00;100279.38;4964014;28;20023;-73
2021/01/29 04:54:03;;;;;;;16.10;9.32;;;;;;;2.87;100.00;100267.38;4965430;28;20470;-74
2021/01/29 04:56:55;;;;;;;14.20;9.32;;;;;;;2.77;100.00;100270.75;4977799;28;20042;-74
2021/01/29 04:59:51;;;;;;;14.02;9.55;;;;;;;3.10;100.00;100260.59;4965301;28;20038;-73
2021/01/29 05:03:07;;;;;;;15.35;9.02;;;;;;;3.18;100.00;100258.91;4977150;28;20464;-73
2021/01/29 05:06:07;;;;;;;13.02;8.43;;;;;;;2.46;100.00;100258.47;4977150;28;20110;-73
2021/01/29 05:09:08;;;;;;;12.13;8.05;;;;;;;2.94;100.00;100253.59;4977697;28;20082;-74
2021/01/29 05:12:00;;;;;;;12.23;7.85;;;;;;;2.93;100.00;100248.44;4964249;28;20078;-74
2021/01/29 05:15:18;;;;;;;12.95;7.38;;;;;;;3.24;100.00;100265.81;4976790;28;20100;-74
2021/01/29 05:18:32;;;;;;;13.00;8.25;;;;;;;3.23;100.00;100266.69;4977927;28;20078;-73
2021/01/29 05:21:27;;;;;;;15.48;9.32;;;;;;;3.06;100.00;100264.00;4976829;28;20034;-73
2021/01/29 05:24:50;;;;;;;15.23;9.05;;;;;;;3.09;100.00;100261.44;4976704;28;20078;-74
2021/01/29 05:27:48;;;;;;;11.95;8.23;;;;;;;3.12;100.00;100258.88;4976263;28;20061;-74
2021/01/29 05:31:22;;;;;;;12.40;8.48;;;;;;;2.79;100.00;100256.13;4977452;28;20093;-73
2021/01/29 05:35:02;;;;;;;14.82;8.30;;;;;;;2.96;100.00;100249.31;4976770;28;20105;-73
2021/01/29 05:38:07;;;;;;;17.65;10.25;;;;;;;2.93;100.00;100261.38;4917234;29;20029;-74
2021/01/29 05:41:27;;;;;;;18.95;11.02;;;;;;;3.21;100.00;100248.56;4976496;28;20054;-73
2021/01/29 05:44:51;;;;;;;19.98;11.35;;;;;;;3.25;100.00;100257.19;4961982;28;20027;-73
2021/01/29 05:47:59;;;;;;;22.05;12.30;;;;;;;2.97;100.00;100260.53;4963709;28;20383;-73
2021/01/29 05:51:21;;;;;;;23.13;13.45;;;;;;;3.26;100.00;100258.94;4962822;28;20112;-72
2021/01/29 05:54:42;;;;;;;29.83;15.13;;;;;;;3.42;100.00;100256.41;4963804;28;20041;-73
2021/01/29 05:57:55;;;;;;;24.88;14.75;;;;;;;3.42;100.00;100260.75;4939617;28;20035;-73
2021/01/29 06:01:15;;;;;;;25.15;15.02;;;;;;;3.93;100.00;100269.50;4963360;28;20515;-74
2021/01/29 06:04:18;;;;;;;31.45;17.42;;;;;;;3.83;100.00;100282.44;4976172;28;20027;-73
2021/01/29 06:07:33;;;;;;;38.15;19.80;;;;;;;3.24;100.00;100273.59;4963518;28;20018;-72
2021/01/29 06:10:52;;;;;;;38.22;20.00;;;;;;;3.83;100.00;100279.84;4962745;28;20367;-73
2021/01/29 06:14:16;;;;;;;34.78;19.15;;;;;;;3.57;100.00;100279.78;4962922;28;20055;-73
2021/01/29 06:17:11;;;;;;;41.15;21.55;;;;;;;3.90;100.00;100285.06;4962815;28;20086;-73
2021/01/29 06:20:19;;;;;;;44.90;24.60;;;;;;;3.66;100.00;100287.56;4962590;28;20034;-73
2021/01/29 06:23:17;;;;;;;45.60;24.17;;;;;;;3.64;100.00;100286.72;4962668;28;20038;-74
2021/01/29 06:26:15;;;;;;;42.45;22.38;;;;;;;3.57;100.00;100284.97;4962702;28;20037;-72
2021/01/29 06:29:22;;;;;;;41.17;23.67;;;;;;;3.44;100.00;100285.78;4963187;28;20031;-73
2021/01/29 06:32:11;;;;;;;43.47;24.42;;;;;;;3.86;100.00;100288.50;4962397;28;20022;-73
2021/01/29 06:34:59;;;;;;;42.20;23.95;;;;;;;4.16;100.00;100293.75;4962935;28;20069;-73
2021/01/29 06:38:09;;;;;;;37.75;22.30;;;;;;;4.07;100.00;100288.53;4975654;28;20051;-74
2021/01/29 06:41:14;;;;;;;37.90;23.35;;;;;;;4.58;100.00;100295.47;4975013;28;20038;-72
2021/01/29 06:44:05;;;;;;;39.97;23.25;;;;;;;4.08;100.00;100287.69;4962107;28;20030;-74
2021/01/29 06:47:30;;;;;;;47.38;26.88;;;;;;;4.59;100.00;100285.09;4962498;28;20089;-73
2021/01/29 06:50:50;;;;;;;36.65;21.55;;;;;;;4.23;100.00;100277.31;4962511;28;20019;-73
2021/01/29 06:54:13;;;;;;;40.15;22.52;;;;;;;4.78;100.00;100297.22;4975432;28;20023;-73
2021/01/29 06:57:26;;;;;;;37.97;22.38;;;;;;;4.87;100.00;100291.16;4974826;28;20467;-73
2021/01/29 07:00:23;;;;;;;41.88;23.60;;;;;;;4.96;100.00;100281.63;4962802;28;20062;-74
2021/01/29 07:03:44;;;;;;;48.47;27.08;;;;;;;4.79;100.00;100285.97;4961307;28;20514;-73
2021/01/29 07:07:00;;;;;;;47.30;25.40;;;;;;;5.12;100.00;100278.13;4905331;29;20043;-72
2021/01/29 07:10:01;;;;;;;45.33;25.35;;;;;;;5.28;100.00;100278.94;4961740;28;20031;-74
2021/01/29 07:13:05;;;;;;;43.95;25.38;;;;;;;5.31;100.00;100279.78;4975287;28;20046;-74
2021/01/29 07:16:03;;;;;;;39.47;24.17;;;;;;;5.49;100.00;100271.06;4975715;28;20419;-73
2021/01/29 07:18:55;;;;;;;41.75;24.75;;;;;;;5.69;100.00;100269.22;4975328;28;20443;-73
2021/01/29 07:22:15;;;;;;;45.30;25.75;;;;;;;5.65;100.00;100267.50;4961901;28;20037;-74
2021/01/29 07:25:07;;;;;;;51.13;30.13;;;;;;;5.56;100.00;100266.69;4946245;28;20118;-73
2021/01/29 07:28:28;;;;;;;50.45;29.60;;;;;;;5.83;100.00;100271.78;4962765;28;20019;-73
2021/01/29 07:31:43;;;;;;;45.05;27.25;;;;;;;5.69;100.00;100253.63;4963252;28;20089;-72
2021/01/29 07:34:34;;;;;;;34.50;19.83;;;;;;;5.54;100.00;100260.66;4931319;28;20523;-73
2021/01/29 07:37:26;;;;;;;28.23;16.98;;;;;;;6.01;100.00;100258.66;4975652;28;20036;-73
2021/01/29 07:40:24;;;;;;;24.50;15.23;;;;;;;6.17;100.00;100265.50;4962220;28;20030;-73
2021/01/29 07:43:26;;;;;;;20.63;13.00;;;;;;;6.15;100.00;100272.47;4975636;28;20038;-75
2021/01/29 07:46:32;;;;;;;20.00;12.85;;;;;;;6.40;100.00;100268.78;4974874;28;20089;-71
2021/01/29 07:50:00;;;;;;;21.63;13.20;;;;;;;6.33;100.00;100272.31;4963222;28;20364;-76
2021/01/29 07:53:04;;;;;;;20.98;12.93;;;;;;;5.33;100.00;100278.06;4966232;28;20101;-72
2021/01/29 07:56:11;;;;;;;28.73;15.60;;;;;;;5.81;100.00;100269.19;4979935;28;20447;-71
2021/01/29 07:59:13;;;;;;;28.65;16.90;;;;;;;6.19;100.00;100271.56;4979172;28;20122;-72
2021/01/29 08:02:25;;;;;;;31.63;18.60;;;;;;;6.51;100.00;100265.22;4978387;28;20031;-75
2021/01/29 08:05:23;;;;;;;38.55;22.38;;;;;;;5.92;100.00;100263.94;4963918;28;20113;-73
2021/01/29 08:08:17;;;;;;;39.55;22.10;;;;;;;6.07;100.00;100251.69;4978733;28;20040;-73
2021/01/29 08:11:08;;;;;;;33.83;18.88;;;;;;;5.24;100.00;100248.66;4965420;28;20514;-73
2021/01/29 08:14:26;;;;;;;26.67;16.15;;;;;;;5.75;100.00;100244.94;4979297;28;20530;-73
2021/01/29 08:17:38;;;;;;;29.35;16.20;;;;;;;6.21;100.00;100241.19;4977937;28;20023;-74
2021/01/29 08:20:37;;;;;;;31.13;17.00;;;;;;;5.34;100.00;100243.41;4978587;28;20027;-74
2021/01/29 08:23:37;;;;;;;26.95;16.73;;;;;;;5.63;100.00;100239.81;4978420;28;20463;-73
2021/01/29 08:26:53;;;;;;;26.83;15.88;;;;;;;5.96;100.00;100239.66;4977517;28;20059;-73
2021/01/29 08:29:45;;;;;;;28.92;17.40;;;;;;;6.43;100.00;100245.38;4978238;28;20534;-73
2021/01/29 08:32:55;;;;;;;31.10;18.23;;;;;;;5.65;100.00;100243.25;4977393;28;20034;-74
2021/01/29 08:35:41;;;;;;;31.30;19.02;;;;;;;6.12;100.00;100243.88;4979051;28;20414;-72
2021/01/29 08:38:38;;;;;;;37.83;21.65;;;;;;;6.48;100.00;100256.59;4978521;28;20042;-73
2021/01/29 08:41:41;;;;;;;35.15;19.60;;;;;;;5.97;100.00;100244.84;4978689;28;20037;-73
2021/01/29 08:44:54;;;;;;;36.33;19.67;;;;;;;6.12;100.00;100246.47;4977536;28;20027;-73
2021/01/29 08:48:07;;;;;;;26.52;16.30;;;;;;;5.27;100.00;100239.09;4977782;28;20113;-73
2021/01/29 08:51:18;;;;;;;26.27;16.00;;;;;;;5.92;100.00;100233.63;4978078;28;20027;-72
2021/01/29 08:54:19;;;;;;;29.35;15.70;;;;;;;4.99;100.00;100221.06;4978444;28;20031;-72
2021/01/29 08:57:19;;;;;;;30.30;17.40;;;;;;;5.78;100.00;100213.75;4963716;28;20479;-73
2021/01/29 09:00:22;;;;;;;29.17;16.90;;;;;;;5.43;100.00;100222.59;4965395;28;20030;-73
2021/01/29 09:03:40;;;;;;;29.50;17.13;;;;;;;5.57;100.00;100213.84;4977193;28;20027;-73
2021/01/29 09:06:36;;;;;;;22.38;14.48;;;;;;;5.28;100.00;100208.81;4964950;28;20120;-74
2021/01/29 09:09:28;;;;;;;21.40;13.30;;;;;;;5.26;100.00;100203.63;4962981;28;20030;-72
2021/01/29 09:12:31;;;;;;;19.30;12.10;;;;;;;4.69;100.00;100192.56;4963689;28;20058;-73
2021/01/29 09:15:26;;;;;;;14.10;8.65;;;;;;;4.69;100.00;100183.06;4977631;28;20023;-73
2021/01/29 09:18:43;;;;;;;17.80;10.65;;;;;;;5.56;100.00;100173.16;4978263;28;20031;-73
2021/01/29 09:21:42;;;;;;;15.27;9.60;;;;;;;5.81;100.00;100170.44;4977266;28;20109;-73
2021/01/29 09:24:52;;;;;;;17.02;9.82;;;;;;;5.65;100.00;100165.31;4977876;28;20027;-73
2021/01/29 09:28:02;;;;;;;14.70;9.02;;;;;;;5.54;100.00;100164.53;4976930;28;20106;-73
2021/01/29 09:30:55;;;;;;;14.35;7.93;;;;;;;5.66;100.00;100157.50;4964506;28;20038;-72
2021/01/29 09:34:01;;;;;;;15.18;8.25;;;;;;;5.57;100.00;100160.16;4977701;28;20052;-73
2021/01/29 09:36:53;;;;;;;13.85;8.23;;;;;;;5.14;100.00;100154.34;4964313;28;20125;-77
2021/01/29 09:39:57;;;;;;;19.52;9.90;;;;;;;5.25;100.00;100151.69;4977295;28;20030;-74
2021/01/29 09:43:15;;;;;;;12.50;8.48;;;;;;;5.23;100.00;100159.50;4977059;28;20023;-73
2021/01/29 09:46:02;;;;;;;13.95;9.00;;;;;;;5.26;100.00;100148.22;4962732;28;20026;-78
2021/01/29 09:48:58;;;;;;;16.75;10.43;;;;;;;4.75;100.00;100131.16;4977068;28;20023;-74
2021/01/29 09:51:59;;;;;;;17.90;10.95;;;;;;;5.60;100.00;100130.69;4961549;28;20031;-73
2021/01/29 09:54:45;;;;;;;20.23;11.85;;;;;;;5.86;100.00;100121.03;4976536;28;20113;-72
2021/01/29 09:57:41;;;;;;;21.45;12.77;;;;;;;5.40;100.00;100128.25;4975671;28;20023;-72
2021/01/29 10:00:31;;;;;;;27.00;14.93;;;;;;;5.92;100.00;100114.03;4976582;28;20084;-72
2021/01/29 10:03:23;;;;;;;43.67;21.10;;;;;;;5.39;100.00;100116.13;4975483;28;20114;-72
2021/01/29 10:06:20;;;;;;;31.98;17.77;;;;;;;5.58;100.00;100106.47;4963456;28;20041;-72
2021/01/29 10:09:16;;;;;;;31.08;16.88;;;;;;;5.50;100.00;100101.31;4975578;28;20015;-73
2021/01/29 10:12:16;;;;;;;27.33;15.88;;;;;;;5.93;100.00;100104.47;4975582;28;20046;-73
2021/01/29 10:15:12;;;;;;;24.65;14.10;;;;;;;5.46;100.00;100090.97;4974782;28;20050;-72
2021/01/29 10:18:04;;;;;;;44.75;27.77;;;;;;;5.75;100.00;100087.28;4976355;28;20030;-72
2021/01/29 10:21:01;;;;;;;25.25;14.45;;;;;;;5.91;100.00;100085.44;4975571;28;20031;-72
2021/01/29 10:23:59;;;;;;;23.77;14.57;;;;;;;6.18;100.00;100087.78;4976333;28;20034;-71
2021/01/29 10:26:57;;;;;;;24.23;14.98;;;;;;;6.32;100.00;100083.31;4975898;28;20080;-72
2021/01/29 10:29:51;;;;;;;29.90;16.65;;;;;;;6.93;100.00;100087.78;4976552;28;20031;-73
2021/01/29 10:32:37;;;;;;;31.08;18.00;;;;;;;6.51;100.00;100085.69;4961000;28;20042;-73
2021/01/29 10:35:39;;;;;;;30.83;18.17;;;;;;;6.57;100.00;100082.16;4976130;28;20027;-73
2021/01/29 10:38:31;;;;;;;25.85;16.30;;;;;;;5.82;100.00;100081.19;4975846;28;20038;-73
2021/01/29 10:41:20;;;;;;;23.95;15.38;;;;;;;6.00;100.00;100069.75;4976695;28;20058;-73
2021/01/29 10:44:31;;;;;;;23.13;13.70;;;;;;;5.98;100.00;100071.53;4962337;28;20041;-74
2021/01/29 10:47:36;;;;;;;20.13;12.77;;;;;;;5.91;100.00;100069.84;4976780;28;20019;-73
2021/01/29 10:50:26;;;;;;;19.10;12.95;;;;;;;6.74;100.00;100068.06;4975207;28;20034;-73
2021/01/29 10:53:18;;;;;;;17.17;11.85;;;;;;;6.59;100.00;100073.44;4975961;28;20057;-74
2021/01/29 10:56:13;;;;;;;17.25;11.73;;;;;;;6.83;100.00;100073.13;4975840;28;20045;-73
2021/01/29 10:59:14;;;;;;;17.45;11.02;;;;;;;6.30;100.00;100064.25;4975049;28;20049;-74
2021/01/29 11:02:09;;;;;;;19.60;12.60;;;;;;;6.36;100.00;100056.38;4975131;28;20030;-74
2021/01/29 11:05:06;;;;;;;16.90;11.07;;;;;;;6.37;100.00;100055.50;4976345;28;20031;-74
2021/01/29 11:08:02;;;;;;;17.65;11.55;;;;;;;6.91;100.00;100050.47;4975801;28;20023;-74
2021/01/29 11:10:53;;;;;;;18.92;12.73;;;;;;;7.16;100.00;100051.00;4975257;28;20522;-74
2021/01/29 11:14:12;;;;;;;18.48;12.35;;;;;;;7.13;100.00;100045.84;4975139;28;20086;-73
2021/01/29 11:17:06;;;;;;;18.33;11.98;;;;;;;7.35;100.00;100045.50;4976185;28;20038;-74
2021/01/29 11:19:54;;;;;;;20.33;11.85;;;;;;;7.61;100.00;100029.44;4975084;28;20448;-74
2021/01/29 11:22:59;;;;;;;20.95;12.50;;;;;;;7.33;100.00;100025.56;4976112;28;20073;-74
2021/01/29 11:26:06;;;;;;;20.45;13.15;;;;;;;6.98;100.00;100027.81;4976009;28;20109;-74
2021/01/29 11:29:13;;;;;;;15.40;10.57;;;;;;;7.09;100.00;100026.78;4979452;28;20360;-75
2021/01/29 11:32:26;;;;;;;15.18;10.85;;;;;;;6.54;100.00;100019.72;4978827;28;20030;-75
2021/01/29 11:35:41;;;;;;;16.55;10.57;;;;;;;7.06;100.00;100024.22;4979341;28;20086;-74
2021/01/29 11:38:47;;;;;;;16.20;10.15;;;;;;;7.23;100.00;100018.78;4978884;28;20026;-76
2021/01/29 11:41:42;;;;;;;14.48;10.10;;;;;;;7.86;100.00;100012.50;4979937;28;20062;-76
2021/01/29 11:44:39;;;;;;;18.63;10.98;;;;;;;7.14;100.00;100011.09;4979172;28;20049;-75
2021/01/29 11:47:49;;;;;;;15.63;10.57;;;;;;;7.88;100.00;100005.50;4978999;28;20022;-77
2021/01/29 11:50:41;;;;;;;16.73;11.43;;;;;;;7.69;100.00;100001.50;4978787;28;20049;-75
2021/01/29 11:53:39;;;;;;;16.27;9.93;;;;;;;7.95;100.00;100002.75;4979032;28;20403;-74
2021/01/29 11:56:37;;;;;;;15.23;10.80;;;;;;;7.51;100.00;99997.47;4979354;28;20027;-74
2021/01/29 11:59:48;;;;;;;15.23;10.30;;;;;;;7.81;100.00;99990.88;4978830;28;20114;-74
2021/01/29 12:02:48;;;;;;;16.75;10.43;;;;;;;8.66;100.00;99983.97;4977912;28;20042;-75
2021/01/29 12:05:56;;;;;;;14.57;10.05;;;;;;;8.34;100.00;99973.34;4965568;28;20058;-74
2021/01/29 12:09:08;;;;;;;14.20;9.73;;;;;;;9.12;100.00;99970.72;4977798;28;20348;-74
2021/01/29 12:11:56;;;;;;;11.77;8.63;;;;;;;8.62;100.00;99971.88;4978714;28;20129;-75
2021/01/29 12:15:14;;;;;;;12.75;9.18;;;;;;;9.09;100.00;99970.81;4978175;28;20085;-74
2021/01/29 12:18:05;;;;;;;9.25;6.93;;;;;;;8.95;100.00;99967.63;4979083;28;20031;-74
2021/01/29 12:21:06;;;;;;;8.27;6.10;;;;;;;8.37;100.00;99961.97;4978180;28;20030;-75
2021/01/29 12:24:19;;;;;;;7.80;6.10;;;;;;;8.52;100.00;99957.28;4979350;28;20030;-75
2021/01/29 12:27:15;;;;;;;7.70;5.93;;;;;;;8.69;100.00;99949.09;4977981;28;20039;-74
2021/01/29 12:30:14;;;;;;;10.20;6.82;;;;;;;8.78;100.00;99948.88;4965849;28;20026;-74
2021/01/29 12:33:31;;;;;;;9.55;6.95;;;;;;;8.68;100.00;99937.78;4978989;28;20030;-74
2021/01/29 12:36:20;;;;;;;10.38;5.95;;;;;;;8.65;100.00;99934.38;4975610;28;20042;-75
2021/01/29 12:39:14;;;;;;;8.55;5.70;;;;;;;9.23;100.00;99926.91;4964130;28;20049;-74
2021/01/29 12:42:11;;;;;;;9.75;6.85;;;;;;;9.20;100.00;99927.84;4978820;28;20029;-74
2021/01/29 12:45:04;;;;;;;9.30;7.10;;;;;;;9.53;100.00;99931.38;4977681;28;20026;-74
2021/01/29 12:48:17;;;;;;;9.40;6.63;;;;;;;9.31;100.00;99930.19;4977931;28;20094;-74
2021/01/29 12:51:08;;;;;;;10.15;8.00;;;;;;;8.73;100.00;99932.47;4963819;28;20158;-74
2021/01/29 12:54:05;;;;;;;13.48;9.15;;;;;;;9.01;100.00;99928.31;4964213;28;20440;-74
2021/01/29 12:57:00;;;;;;;9.73;5.75;;;;;;;9.06;100.00;99923.84;4978318;28;20467;-74
2021/01/29 12:59:58;;;;;;;10.35;5.50;;;;;;;9.14;100.00;99929.75;4978399;28;20062;-76
2021/01/29 13:02:53;;;;;;;7.15;5.70;;;;;;;9.04;100.00;99923.88;4977391;28;20185;-76
2021/01/29 13:05:57;;;;;;;7.82;5.25;;;;;;;8.83;100.00;99931.34;4977933;28;20037;-77
2021/01/29 13:09:05;;;;;;;6.30;5.40;;;;;;;8.83;100.00;99933.97;4977085;28;20098;-76
2021/01/29 13:12:17;;;;;;;6.72;5.38;;;;;;;8.78;100.00;99933.22;4977201;28;20122;-76
2021/01/29 13:15:18;;;;;;;7.22;5.70;;;;;;;8.79;100.00;99930.56;4964471;28;20023;-76
2021/01/29 13:18:14;;;;;;;7.38;5.72;;;;;;;8.97;100.00;99926.69;4964195;28;20090;-76
2021/01/29 13:21:07;;;;;;;7.72;6.18;;;;;;;8.65;100.00;99927.41;4977081;28;20030;-74
2021/01/29 13:23:58;;;;;;;10.20;6.68;;;;;;;8.93;100.00;99922.41;4977584;28;20094;-76
2021/01/29 13:26:45;;;;;;;8.55;6.82;;;;;;;8.82;100.00;99924.41;4977607;28;20034;-75
2021/01/29 13:29:33;;;;;;;11.23;7.65;;;;;;;8.87;100.00;99925.16;4963910;28;20030;-75
2021/01/29 13:32:23;;;;;;;11.80;8.00;;;;;;;8.83;100.00;99924.38;4977203;28;20035;-76
2021/01/29 13:35:12;;;;;;;12.13;7.90;;;;;;;8.40;100.00;99915.78;4964041;28;20494;-74
2021/01/29 13:38:11;;;;;;;13.93;8.90;;;;;;;8.48;100.00;99920.84;4963673;28;20038;-74